createdAt,value
2018-05-21T00:01:23.426Z,20.10
2018-05-21T00:03:00.639Z,20.20
2018-05-21T00:04:37.081Z,20.20
2018-05-21T00:06:14.272Z,20.40
2018-05-21T00:07:57.040Z,20.40
2018-05-21T00:09:33.431Z,20.00
2018-05-21T00:11:10.081Z,19.80
2018-05-21T00:12:47.155Z,19.80
2018-05-21T00:14:58.429Z,19.90
2018-05-21T00:16:35.732Z,19.90
2018-05-21T00:18:14.298Z,19.90
2018-05-21T00:19:51.544Z,19.90
2018-05-21T00:21:30.161Z,19.80
2018-05-21T00:23:06.950Z,19.80
2018-05-21T00:24:43.807Z,19.80
2018-05-21T00:26:53.852Z,19.80
2018-05-21T00:28:32.467Z,20.00
2018-05-21T00:30:13.226Z,20.00
2018-05-21T00:31:55.577Z,19.90
2018-05-21T00:33:33.358Z,19.90
2018-05-21T00:35:09.748Z,19.90
2018-05-21T00:36:46.002Z,19.80
2018-05-21T00:38:22.781Z,19.70
2018-05-21T00:39:59.532Z,19.60
2018-05-21T00:41:36.757Z,19.60
2018-05-21T00:43:13.097Z,19.70
2018-05-21T00:44:50.331Z,19.80
2018-05-21T00:46:26.883Z,19.60
2018-05-21T00:48:03.757Z,19.60
2018-05-21T00:49:40.488Z,19.80
2018-05-21T00:51:23.168Z,19.80
2018-05-21T00:53:01.952Z,19.80
2018-05-21T00:54:47.131Z,20.40
2018-05-21T00:56:24.921Z,20.40
2018-05-21T00:58:03.367Z,20.10
2018-05-21T00:59:42.964Z,20.00
2018-05-21T01:01:20.494Z,19.80
2018-05-21T01:02:57.306Z,19.70
2018-05-21T01:04:33.877Z,19.60
2018-05-21T01:06:15.946Z,19.50
2018-05-21T01:07:53.843Z,19.50
2018-05-21T01:09:31.046Z,19.30
2018-05-21T01:11:07.585Z,19.30
2018-05-21T01:12:43.995Z,19.40
2018-05-21T01:14:20.342Z,19.60
2018-05-21T01:15:57.235Z,19.80
2018-05-21T01:17:34.115Z,19.70
2018-05-21T01:19:11.303Z,19.40
2018-05-21T01:20:47.792Z,19.40
2018-05-21T01:22:24.462Z,19.20
2018-05-21T01:24:01.119Z,19.20
2018-05-21T01:25:37.404Z,19.20
2018-05-21T01:27:15.855Z,19.10
2018-05-21T01:28:55.795Z,19.00
2018-05-21T01:30:32.715Z,19.10
2018-05-21T01:32:09.101Z,19.00
2018-05-21T01:33:45.586Z,18.90
2018-05-21T01:35:22.989Z,19.20
2018-05-21T01:37:00.002Z,18.90
2018-05-21T01:38:36.396Z,18.90
2018-05-21T01:40:13.489Z,19.00
2018-05-21T01:44:22.337Z,19.10
2018-05-21T01:45:59.354Z,19.10
2018-05-21T01:47:36.203Z,19.20
2018-05-21T01:49:12.481Z,19.30
2018-05-21T01:50:49.622Z,19.30
2018-05-21T01:52:25.931Z,19.10
2018-05-21T01:54:02.642Z,19.10
2018-05-21T01:55:39.772Z,19.00
2018-05-21T01:57:16.743Z,18.60
2018-05-21T01:58:53.614Z,18.60
2018-05-21T02:00:30.845Z,18.60
2018-05-21T02:02:07.190Z,18.70
2018-05-21T02:03:43.466Z,18.50
2018-05-21T02:05:19.825Z,18.60
2018-05-21T02:06:56.670Z,18.60
2018-05-21T02:08:33.057Z,18.60
2018-05-21T02:10:09.925Z,18.60
2018-05-21T02:11:46.166Z,18.60
2018-05-21T02:13:22.998Z,18.60
2018-05-21T02:14:59.333Z,18.60
2018-05-21T02:16:35.876Z,18.70
2018-05-21T02:18:12.275Z,18.70
2018-05-21T02:19:51.010Z,18.60
2018-05-21T02:21:27.560Z,18.60
2018-05-21T02:23:08.998Z,18.80
2018-05-21T02:24:46.277Z,18.80
2018-05-21T02:26:23.047Z,18.70
2018-05-21T02:27:59.356Z,18.60
2018-05-21T02:29:36.107Z,18.60
2018-05-21T02:31:12.464Z,18.50
2018-05-21T02:32:49.487Z,18.60
2018-05-21T02:34:26.125Z,18.40
2018-05-21T02:36:03.754Z,18.20
2018-05-21T02:37:40.426Z,18.20
2018-05-21T02:39:17.152Z,18.30
2018-05-21T02:40:54.076Z,18.30
2018-05-21T02:42:30.522Z,18.40
2018-05-21T02:44:07.841Z,18.50
2018-05-21T02:45:44.875Z,18.60
2018-05-21T02:47:21.311Z,18.50
2018-05-21T02:48:57.668Z,18.50
2018-05-21T02:50:34.049Z,18.60
2018-05-21T02:52:11.454Z,18.50
2018-05-21T02:53:47.730Z,18.50
2018-05-21T02:55:24.138Z,18.50
2018-05-21T02:57:01.060Z,18.50
2018-05-21T02:58:37.726Z,18.40
2018-05-21T03:00:16.758Z,18.30
2018-05-21T03:01:54.655Z,18.30
2018-05-21T03:03:31.777Z,18.00
2018-05-21T03:05:09.825Z,18.00
2018-05-21T03:06:46.073Z,18.00
2018-05-21T03:08:22.763Z,17.90
2018-05-21T03:10:02.365Z,17.90
2018-05-21T03:11:39.040Z,17.90
2018-05-21T03:13:15.302Z,17.70
2018-05-21T03:14:51.950Z,17.60
2018-05-21T03:16:28.896Z,17.50
2018-05-21T03:18:05.338Z,17.60
2018-05-21T03:19:41.747Z,17.60
2018-05-21T03:21:18.289Z,17.80
2018-05-21T03:22:54.838Z,17.90
2018-05-21T03:24:31.409Z,18.10
2018-05-21T03:26:07.828Z,18.10
2018-05-21T03:27:44.052Z,18.00
2018-05-21T03:29:21.127Z,18.00
2018-05-21T03:30:58.321Z,18.00
2018-05-21T03:32:34.770Z,18.00
2018-05-21T03:34:11.123Z,17.80
2018-05-21T03:35:47.467Z,17.80
2018-05-21T03:37:24.414Z,17.70
2018-05-21T03:39:01.413Z,17.90
2018-05-21T03:40:37.645Z,17.90
2018-05-21T03:42:14.606Z,17.90
2018-05-21T03:43:51.530Z,17.90
2018-05-21T03:45:28.017Z,17.90
2018-05-21T03:47:04.483Z,18.10
2018-05-21T03:48:41.240Z,18.10
2018-05-21T03:50:17.933Z,18.20
2018-05-21T03:51:58.543Z,18.30
2018-05-21T03:53:35.102Z,18.30
2018-05-21T03:55:11.353Z,18.50
2018-05-21T03:56:48.045Z,18.80
2018-05-21T03:58:37.415Z,19.00
2018-05-21T04:01:28.941Z,19.10
2018-05-21T04:03:33.346Z,19.20
2018-05-21T04:05:09.910Z,19.20
2018-05-21T04:06:46.636Z,19.10
2018-05-21T04:08:23.460Z,19.20
2018-05-21T04:09:59.953Z,19.40
2018-05-21T04:11:36.750Z,19.50
2018-05-21T04:13:16.481Z,19.40
2018-05-21T04:14:54.328Z,19.40
2018-05-21T04:16:30.866Z,19.70
2018-05-21T04:18:07.417Z,19.90
2018-05-21T04:19:43.882Z,20.10
2018-05-21T04:21:22.959Z,20.50
2018-05-21T04:23:00.421Z,20.50
2018-05-21T04:24:46.922Z,20.50
2018-05-21T04:26:26.060Z,20.40
2018-05-21T04:28:05.266Z,20.40
2018-05-21T04:29:44.127Z,20.30
2018-05-21T04:31:20.806Z,20.30
2018-05-21T04:32:57.596Z,20.10
2018-05-21T04:34:33.945Z,20.30
2018-05-21T04:36:10.282Z,20.50
2018-05-21T04:37:46.988Z,20.80
2018-05-21T04:39:23.631Z,21.00
2018-05-21T04:41:00.403Z,21.20
2018-05-21T04:42:37.278Z,21.40
2018-05-21T04:44:14.037Z,21.70
2018-05-21T04:45:51.241Z,22.00
2018-05-21T04:47:27.553Z,22.00
2018-05-21T04:49:03.862Z,21.90
2018-05-21T04:50:40.117Z,22.00
2018-05-21T04:52:16.874Z,21.70
2018-05-21T04:53:53.221Z,21.60
2018-05-21T04:55:29.499Z,21.60
2018-05-21T04:57:06.009Z,21.40
2018-05-21T04:58:42.989Z,21.90
2018-05-21T05:00:20.923Z,21.90
2018-05-21T05:01:57.539Z,22.00
2018-05-21T05:03:34.605Z,22.10
2018-05-21T05:05:11.368Z,22.50
2018-05-21T05:06:49.399Z,22.50
2018-05-21T05:08:25.872Z,22.60
2018-05-21T05:10:02.214Z,22.40
2018-05-21T05:11:40.205Z,21.70
2018-05-21T05:13:16.704Z,21.70
2018-05-21T05:14:55.679Z,22.00
2018-05-21T05:16:32.396Z,21.90
2018-05-21T05:18:10.010Z,21.40
2018-05-21T05:19:46.615Z,21.40
2018-05-21T05:21:24.060Z,21.20
2018-05-21T05:23:00.369Z,21.10
2018-05-21T05:24:37.917Z,20.40
2018-05-21T05:26:14.276Z,20.40
2018-05-21T05:27:50.681Z,20.30
2018-05-21T05:29:27.000Z,20.30
2018-05-21T05:31:03.995Z,20.50
2018-05-21T05:32:40.282Z,20.50
2018-05-21T05:34:16.625Z,20.80
2018-05-21T05:35:52.956Z,21.00
2018-05-21T05:37:29.741Z,21.30
2018-05-21T05:39:08.367Z,21.50
2018-05-21T05:40:45.038Z,21.40
2018-05-21T05:42:21.960Z,21.30
2018-05-21T05:43:58.777Z,21.20
2018-05-21T05:45:35.467Z,21.30
2018-05-21T05:47:11.844Z,21.30
2018-05-21T05:48:48.160Z,21.30
2018-05-21T05:50:28.610Z,21.20
2018-05-21T05:52:05.014Z,21.20
2018-05-21T05:53:41.452Z,21.10
2018-05-21T05:55:18.355Z,20.90
2018-05-21T05:56:55.075Z,21.10
2018-05-21T05:58:31.746Z,21.20
2018-05-21T06:00:09.019Z,21.30
2018-05-21T06:01:45.729Z,21.30
2018-05-21T06:03:23.062Z,21.30
2018-05-21T06:04:59.587Z,21.20
2018-05-21T06:06:36.014Z,21.30
2018-05-21T06:08:12.403Z,21.30
2018-05-21T06:09:49.531Z,21.30
2018-05-21T06:11:27.118Z,21.30
2018-05-21T06:13:03.900Z,21.30
2018-05-21T06:14:40.282Z,21.30
2018-05-21T06:16:17.890Z,21.10
2018-05-21T06:17:54.223Z,20.90
2018-05-21T06:19:30.678Z,20.70
2018-05-21T06:21:07.261Z,20.70
2018-05-21T06:22:44.074Z,20.50
2018-05-21T06:24:21.372Z,20.60
2018-05-21T06:25:57.769Z,20.70
2018-05-21T06:27:34.147Z,20.80
2018-05-21T06:29:11.104Z,20.90
2018-05-21T06:30:48.122Z,21.00
2018-05-21T06:32:24.926Z,21.00
2018-05-21T06:34:01.297Z,20.90
2018-05-21T06:35:40.357Z,20.70
2018-05-21T06:37:17.812Z,20.70
2018-05-21T06:38:56.239Z,20.80
2018-05-21T06:40:34.403Z,20.80
2018-05-21T06:42:11.320Z,20.90
2018-05-21T06:43:48.229Z,21.10
2018-05-21T06:45:24.649Z,21.30
2018-05-21T06:47:01.118Z,21.40
2018-05-21T06:48:38.097Z,21.50
2018-05-21T06:50:14.675Z,21.70
2018-05-21T06:51:55.046Z,21.80
2018-05-21T06:53:32.403Z,22.40
2018-05-21T06:55:09.951Z,22.70
2018-05-21T06:56:46.236Z,22.70
2018-05-21T06:58:25.171Z,22.80
2018-05-21T07:00:01.633Z,22.90
2018-05-21T07:01:39.630Z,23.00
2018-05-21T07:03:17.091Z,23.20
2018-05-21T07:04:54.115Z,23.10
2018-05-21T07:06:30.515Z,23.00
2018-05-21T07:08:08.006Z,22.90
2018-05-21T07:09:44.316Z,22.80
2018-05-21T07:11:20.674Z,22.80
2018-05-21T07:12:57.002Z,22.80
2018-05-21T07:14:33.960Z,22.90
2018-05-21T07:16:10.558Z,22.90
2018-05-21T07:17:47.733Z,22.70
2018-05-21T07:19:24.887Z,22.70
2018-05-21T07:21:01.930Z,22.70
2018-05-21T07:22:38.226Z,22.90
2018-05-21T07:24:15.401Z,23.10
2018-05-21T07:25:51.754Z,23.40
2018-05-21T07:27:28.470Z,23.60
2018-05-21T07:29:05.643Z,23.90
2018-05-21T07:30:42.285Z,23.90
2018-05-21T07:32:18.542Z,24.20
2018-05-21T07:33:55.779Z,24.50
2018-05-21T07:35:32.806Z,24.80
2018-05-21T07:37:09.266Z,25.00
2018-05-21T07:38:46.610Z,25.10
2018-05-21T07:40:22.887Z,25.00
2018-05-21T07:41:59.427Z,25.00
2018-05-21T07:43:36.573Z,24.90
2018-05-21T07:45:13.576Z,24.90
2018-05-21T07:46:50.057Z,25.00
2018-05-21T07:48:26.892Z,25.00
2018-05-21T07:50:03.305Z,25.00
2018-05-21T07:51:40.106Z,25.00
2018-05-21T07:53:17.152Z,25.10
2018-05-21T07:54:54.615Z,25.10
2018-05-21T07:56:31.116Z,25.20
2018-05-21T07:58:08.033Z,25.50
2018-05-21T07:59:44.377Z,25.80
2018-05-21T08:01:21.597Z,25.00
2018-05-21T08:02:58.623Z,24.40
2018-05-21T08:04:36.740Z,24.20
2018-05-21T08:06:14.966Z,24.00
2018-05-21T08:07:51.595Z,24.80
2018-05-21T08:09:27.907Z,25.60
2018-05-21T08:11:05.526Z,25.60
2018-05-21T08:12:42.406Z,25.50
2018-05-21T08:14:18.875Z,24.70
2018-05-21T08:15:55.406Z,24.20
2018-05-21T08:17:32.686Z,24.30
2018-05-21T08:19:10.094Z,24.10
2018-05-21T08:20:46.403Z,24.10
2018-05-21T08:22:23.221Z,25.10
2018-05-21T08:23:59.964Z,24.50
2018-05-21T08:25:36.949Z,24.00
2018-05-21T08:27:14.090Z,24.20
2018-05-21T08:28:50.366Z,24.20
2018-05-21T08:30:27.081Z,24.20
2018-05-21T08:32:04.095Z,24.40
2018-05-21T08:33:40.401Z,23.90
2018-05-21T08:35:17.545Z,24.20
2018-05-21T08:36:54.427Z,24.20
2018-05-21T08:38:30.693Z,24.10
2018-05-21T08:40:07.123Z,24.30
2018-05-21T08:41:43.647Z,24.30
2018-05-21T08:43:21.305Z,24.30
2018-05-21T08:44:58.221Z,24.10
2018-05-21T08:46:34.574Z,23.70
2018-05-21T08:48:11.939Z,23.60
2018-05-21T08:49:48.875Z,23.60
2018-05-21T08:51:25.168Z,24.00
2018-05-21T08:53:02.281Z,23.90
2018-05-21T08:54:38.684Z,24.30
2018-05-21T08:56:15.559Z,24.30
2018-05-21T08:57:52.136Z,24.40
2018-05-21T08:59:28.570Z,24.00
2018-05-21T09:01:05.372Z,23.90
2018-05-21T09:02:42.878Z,23.70
2018-05-21T09:04:19.097Z,23.70
2018-05-21T09:05:56.004Z,23.80
2018-05-21T09:07:33.299Z,23.60
2018-05-21T09:09:11.865Z,23.40
2018-05-21T09:10:48.152Z,23.40
2018-05-21T09:12:25.413Z,23.10
2018-05-21T09:14:01.674Z,23.30
2018-05-21T09:15:38.671Z,23.30
2018-05-21T09:17:15.859Z,23.40
2018-05-21T09:18:53.017Z,23.60
2018-05-21T09:20:29.656Z,23.60
2018-05-21T09:22:06.902Z,23.80
2018-05-21T09:23:44.108Z,23.80
2018-05-21T09:25:20.432Z,23.70
2018-05-21T09:26:57.070Z,23.80
2018-05-21T09:28:33.777Z,23.80
2018-05-21T09:30:13.493Z,24.00
2018-05-21T09:31:49.883Z,24.00
2018-05-21T09:33:27.041Z,23.80
2018-05-21T09:35:03.704Z,23.80
2018-05-21T09:36:41.841Z,24.30
2018-05-21T09:38:19.585Z,24.70
2018-05-21T09:39:56.723Z,24.30
2018-05-21T09:41:33.836Z,24.30
2018-05-21T09:43:10.560Z,24.30
2018-05-21T09:44:47.694Z,23.90
2018-05-21T09:46:25.431Z,23.90
2018-05-21T09:48:02.327Z,24.10
2018-05-21T09:49:50.603Z,24.10
2018-05-21T09:51:27.158Z,24.10
2018-05-21T09:53:03.677Z,24.30
2018-05-21T09:54:40.505Z,24.50
2018-05-21T09:56:17.004Z,24.60
2018-05-21T09:57:53.631Z,24.60
2018-05-21T09:59:31.228Z,24.50
2018-05-21T10:01:08.375Z,24.40
2018-05-21T10:02:44.822Z,24.40
2018-05-21T10:04:21.140Z,24.60
2018-05-21T10:05:57.457Z,24.40
2018-05-21T10:07:34.133Z,24.50
2018-05-21T10:09:10.819Z,24.60
2018-05-21T10:10:47.245Z,24.70
2018-05-21T10:12:25.187Z,24.40
2018-05-21T10:14:02.447Z,24.40
2018-05-21T10:15:39.125Z,24.40
2018-05-21T10:17:15.506Z,24.60
2018-05-21T10:18:51.862Z,24.40
2018-05-21T10:20:28.594Z,24.40
2018-05-21T10:22:05.355Z,24.40
2018-05-21T10:23:42.120Z,24.50
2018-05-21T10:25:20.057Z,24.40
2018-05-21T10:26:56.455Z,24.40
2018-05-21T10:28:32.802Z,24.40
2018-05-21T10:30:18.582Z,24.30
2018-05-21T10:31:55.000Z,24.40
2018-05-21T10:33:32.481Z,24.20
2018-05-21T10:35:09.053Z,24.20
2018-05-21T10:36:45.810Z,24.50
2018-05-21T10:38:23.503Z,24.50
2018-05-21T10:40:01.023Z,24.70
2018-05-21T10:41:37.429Z,24.70
2018-05-21T10:43:14.292Z,24.90
2018-05-21T10:44:51.045Z,24.50
2018-05-21T10:46:28.216Z,24.60
2018-05-21T10:48:05.483Z,24.90
2018-05-21T10:49:42.706Z,25.10
2018-05-21T10:51:19.228Z,25.00
2018-05-21T10:52:55.897Z,25.20
2018-05-21T10:54:32.205Z,25.10
2018-05-21T10:56:08.654Z,25.00
2018-05-21T10:57:45.793Z,24.90
2018-05-21T10:59:22.929Z,24.90
2018-05-21T11:00:59.611Z,24.90
2018-05-21T11:02:35.897Z,25.00
2018-05-21T11:04:12.473Z,24.90
2018-05-21T11:05:49.336Z,24.80
2018-05-21T11:07:25.646Z,25.00
2018-05-21T11:09:02.006Z,25.20
2018-05-21T11:10:38.558Z,25.20
2018-05-21T11:12:14.890Z,25.10
2018-05-21T11:13:51.205Z,25.00
2018-05-21T11:15:27.958Z,25.00
2018-05-21T11:17:04.292Z,25.20
2018-05-21T11:18:41.014Z,25.10
2018-05-21T11:20:17.314Z,25.00
2018-05-21T11:21:54.373Z,24.80
2018-05-21T11:23:31.576Z,24.80
2018-05-21T11:25:08.457Z,24.80
2018-05-21T11:26:45.546Z,25.10
2018-05-21T11:28:22.989Z,25.10
2018-05-21T11:30:00.201Z,25.00
2018-05-21T11:31:38.026Z,25.40
2018-05-21T11:33:14.425Z,25.30
2018-05-21T11:34:50.784Z,25.20
2018-05-21T11:36:27.256Z,25.30
2018-05-21T11:38:04.148Z,25.50
2018-05-21T11:39:41.690Z,25.30
2018-05-21T11:41:18.588Z,25.30
2018-05-21T11:42:55.817Z,25.10
2018-05-21T11:44:32.520Z,25.10
2018-05-21T11:46:09.271Z,25.10
2018-05-21T11:47:45.661Z,25.50
2018-05-21T11:49:22.376Z,25.70
2018-05-21T11:51:00.068Z,25.80
2018-05-21T11:52:36.464Z,25.80
2018-05-21T11:54:12.857Z,25.90
2018-05-21T11:55:49.226Z,25.70
2018-05-21T11:57:25.822Z,25.80
2018-05-21T11:59:02.351Z,25.70
2018-05-21T12:00:39.159Z,25.40
2018-05-21T12:02:15.518Z,25.40
2018-05-21T12:03:53.137Z,25.20
2018-05-21T12:05:29.656Z,25.20
2018-05-21T12:07:06.102Z,25.10
2018-05-21T12:08:42.423Z,25.30
2018-05-21T12:10:20.288Z,25.40
2018-05-21T12:11:56.523Z,25.40
2018-05-21T12:13:33.722Z,25.30
2018-05-21T12:15:10.150Z,25.30
2018-05-21T12:16:47.934Z,25.60
2018-05-21T12:18:24.327Z,25.60
2018-05-21T12:20:00.665Z,25.70
2018-05-21T12:21:37.935Z,25.80
2018-05-21T12:23:15.159Z,25.60
2018-05-21T12:24:51.698Z,25.60
2018-05-21T12:26:28.389Z,25.50
2018-05-21T12:28:04.673Z,25.60
2018-05-21T12:29:43.548Z,25.80
2018-05-21T12:31:21.414Z,26.00
2018-05-21T12:32:58.079Z,26.00
2018-05-21T12:34:34.407Z,26.00
2018-05-21T12:36:11.282Z,26.00
2018-05-21T12:37:48.480Z,25.80
2018-05-21T12:39:25.139Z,25.80
2018-05-21T12:41:01.659Z,25.90
2018-05-21T12:42:39.806Z,25.90
2018-05-21T12:44:17.626Z,26.00
2018-05-21T12:45:55.677Z,26.10
2018-05-21T12:47:34.588Z,26.10
2018-05-21T12:49:23.366Z,26.20
2018-05-21T12:51:00.563Z,26.00
2018-05-21T12:52:38.571Z,26.10
2018-05-21T12:54:15.139Z,26.10
2018-05-21T12:55:51.951Z,26.40
2018-05-21T12:57:28.815Z,26.60
2018-05-21T12:59:05.324Z,26.50
2018-05-21T13:00:41.823Z,26.50
2018-05-21T13:02:18.294Z,26.60
2018-05-21T13:03:54.875Z,26.40
2018-05-21T13:05:31.574Z,26.30
2018-05-21T13:07:08.072Z,26.20
2018-05-21T13:08:44.911Z,26.20
2018-05-21T13:10:21.475Z,26.00
2018-05-21T13:11:58.343Z,25.80
2018-05-21T13:13:35.431Z,25.80
2018-05-21T13:15:13.852Z,26.00
2018-05-21T13:16:50.625Z,26.20
2018-05-21T13:18:28.342Z,26.10
2018-05-21T13:20:04.925Z,26.20
2018-05-21T13:21:42.402Z,26.20
2018-05-21T13:23:18.801Z,26.20
2018-05-21T13:24:55.158Z,26.20
2018-05-21T13:26:31.602Z,26.20
2018-05-21T13:28:08.113Z,26.40
2018-05-21T13:29:44.424Z,26.20
2018-05-21T13:31:21.881Z,26.20
2018-05-21T13:32:58.459Z,25.80
2018-05-21T13:34:35.329Z,25.80
2018-05-21T13:36:11.651Z,25.80
2018-05-21T13:37:48.772Z,26.20
2018-05-21T13:39:28.649Z,26.20
2018-05-21T13:41:05.785Z,26.30
2018-05-21T13:42:42.098Z,26.20
2018-05-21T13:44:19.242Z,25.70
2018-05-21T13:45:56.115Z,25.70
2018-05-21T13:47:34.101Z,25.50
2018-05-21T13:49:10.398Z,25.50
2018-05-21T13:50:47.898Z,25.50
2018-05-21T13:52:24.406Z,25.50
2018-05-21T13:54:01.961Z,25.70
2018-05-21T13:55:38.624Z,25.70
2018-05-21T13:57:14.939Z,25.80
2018-05-21T13:58:52.852Z,25.90
2018-05-21T14:00:29.885Z,25.80
2018-05-21T14:02:06.363Z,26.10
2018-05-21T14:03:44.085Z,26.20
2018-05-21T14:05:20.390Z,26.20
2018-05-21T14:06:58.570Z,25.90
2018-05-21T14:08:34.970Z,25.90
2018-05-21T14:10:11.945Z,26.00
2018-05-21T14:11:49.084Z,26.10
2018-05-21T14:13:26.280Z,26.10
2018-05-21T14:15:04.637Z,26.30
2018-05-21T14:16:41.065Z,26.20
2018-05-21T14:18:17.425Z,26.00
2018-05-21T14:19:54.222Z,26.00
2018-05-21T14:21:31.690Z,26.00
2018-05-21T14:23:08.208Z,26.00
2018-05-21T14:24:44.637Z,25.90
2018-05-21T14:26:21.350Z,26.00
2018-05-21T14:27:57.617Z,25.90
2018-05-21T14:29:34.060Z,26.00
2018-05-21T14:31:10.640Z,26.00
2018-05-21T14:32:49.028Z,26.30
2018-05-21T14:34:26.299Z,26.40
2018-05-21T14:36:03.169Z,26.40
2018-05-21T14:37:39.566Z,26.30
2018-05-21T14:39:15.901Z,26.20
2018-05-21T14:40:52.309Z,26.40
2018-05-21T14:42:29.067Z,26.00
2018-05-21T14:44:05.418Z,26.00
2018-05-21T14:45:42.732Z,26.00
2018-05-21T14:47:19.191Z,26.00
2018-05-21T14:49:03.946Z,26.10
2018-05-21T14:50:41.510Z,26.20
2018-05-21T14:52:18.190Z,26.40
2018-05-21T14:53:54.469Z,26.30
2018-05-21T14:55:30.980Z,26.20
2018-05-21T14:57:07.314Z,26.00
2018-05-21T14:58:45.656Z,26.40
2018-05-21T15:00:22.624Z,26.30
2018-05-21T15:02:00.332Z,26.20
2018-05-21T15:03:38.577Z,26.10
2018-05-21T15:05:16.030Z,26.10
2018-05-21T15:06:54.675Z,25.80
2018-05-21T15:08:31.435Z,25.80
2018-05-21T15:10:07.777Z,25.80
2018-05-21T15:11:45.409Z,25.70
2018-05-21T15:13:22.092Z,25.70
2018-05-21T15:14:58.406Z,25.80
2018-05-21T15:16:34.828Z,25.80
2018-05-21T15:18:11.699Z,26.00
2018-05-21T15:19:48.036Z,26.10
2018-05-21T15:21:24.495Z,25.90
2018-05-21T15:23:01.077Z,25.70
2018-05-21T15:24:38.027Z,25.80
2018-05-21T15:26:15.225Z,25.80
2018-05-21T15:27:51.599Z,26.00
2018-05-21T15:29:28.975Z,26.30
2018-05-21T15:31:07.206Z,26.30
2018-05-21T15:32:44.381Z,26.00
2018-05-21T15:34:20.836Z,26.00
2018-05-21T15:35:57.226Z,25.90
2018-05-21T15:37:37.529Z,26.00
2018-05-21T15:39:13.891Z,26.30
2018-05-21T15:40:50.275Z,26.10
2018-05-21T15:42:27.534Z,26.00
2018-05-21T15:44:04.539Z,25.80
2018-05-21T15:45:43.462Z,25.80
2018-05-21T15:48:51.929Z,25.90
2018-05-21T15:50:29.631Z,26.60
2018-05-21T15:52:06.863Z,27.00
2018-05-21T15:53:43.217Z,26.90
2018-05-21T15:55:19.721Z,26.50
2018-05-21T15:56:57.322Z,26.30
2018-05-21T15:58:34.569Z,26.20
2018-05-21T16:00:10.976Z,26.20
2018-05-21T16:01:47.322Z,26.30
2018-05-21T16:03:24.713Z,26.30
2018-05-21T16:05:01.049Z,26.20
2018-05-21T16:06:37.517Z,26.20
2018-05-21T16:08:13.815Z,25.80
2018-05-21T16:09:50.662Z,25.80
2018-05-21T16:11:27.225Z,26.00
2018-05-21T16:13:03.564Z,25.90
2018-05-21T16:14:39.841Z,25.80
2018-05-21T16:16:16.734Z,25.90
2018-05-21T16:17:53.848Z,26.00
2018-05-21T16:19:31.143Z,25.90
2018-05-21T16:21:07.446Z,26.00
2018-05-21T16:22:44.669Z,25.80
2018-05-21T16:24:21.006Z,25.80
2018-05-21T16:25:57.310Z,26.00
2018-05-21T16:27:33.851Z,26.30
2018-05-21T16:29:10.598Z,26.30
2018-05-21T16:30:47.915Z,26.10
2018-05-21T16:32:24.299Z,26.10
2018-05-21T16:34:00.718Z,25.90
2018-05-21T16:35:37.659Z,25.80
2018-05-21T16:37:14.741Z,25.80
2018-05-21T16:38:51.176Z,25.80
2018-05-21T16:40:27.628Z,25.80
2018-05-21T16:42:05.220Z,25.90
2018-05-21T16:43:41.543Z,25.90
2018-05-21T16:45:19.585Z,25.80
2018-05-21T16:46:56.053Z,25.90
2018-05-21T16:48:33.090Z,26.00
2018-05-21T16:50:09.946Z,26.10
2018-05-21T16:51:46.965Z,26.20
2018-05-21T16:53:23.471Z,26.20
2018-05-21T16:55:01.069Z,26.00
2018-05-21T16:56:37.409Z,26.00
2018-05-21T16:58:13.860Z,26.00
2018-05-21T16:59:50.161Z,26.20
2018-05-21T17:01:27.247Z,26.40
2018-05-21T17:03:03.630Z,26.50
2018-05-21T17:04:40.751Z,26.20
2018-05-21T17:06:17.113Z,26.20
2018-05-21T17:07:54.349Z,26.10
2018-05-21T17:09:31.765Z,25.90
2018-05-21T17:11:08.167Z,25.90
2018-05-21T17:12:44.586Z,25.90
2018-05-21T17:14:21.318Z,25.80
2018-05-21T17:15:58.076Z,25.80
2018-05-21T17:17:34.862Z,25.80
2018-05-21T17:19:12.418Z,25.70
2018-05-21T17:20:49.264Z,25.70
2018-05-21T17:22:26.048Z,25.70
2018-05-21T17:24:02.577Z,25.80
2018-05-21T17:25:39.800Z,25.80
2018-05-21T17:27:16.594Z,25.80
2018-05-21T17:28:53.913Z,25.70
2018-05-21T17:30:30.674Z,25.70
2018-05-21T17:32:07.021Z,25.60
2018-05-21T17:33:44.554Z,25.40
2018-05-21T17:35:21.740Z,25.30
2018-05-21T17:36:59.687Z,25.30
2018-05-21T17:38:36.357Z,25.30
2018-05-21T17:40:12.979Z,25.30
2018-05-21T17:41:50.173Z,25.30
2018-05-21T17:43:26.478Z,25.40
2018-05-21T17:45:02.775Z,25.30
2018-05-21T17:46:40.746Z,25.30
2018-05-21T17:48:17.064Z,25.30
2018-05-21T17:49:53.693Z,25.30
2018-05-21T17:51:31.474Z,25.30
2018-05-21T17:53:08.105Z,25.40
2018-05-21T17:54:44.501Z,25.50
2018-05-21T17:56:22.522Z,25.50
2018-05-21T17:57:59.585Z,25.60
2018-05-21T17:59:36.638Z,25.60
2018-05-21T18:01:13.400Z,25.60
2018-05-21T18:02:49.800Z,25.40
2018-05-21T18:04:26.229Z,25.40
2018-05-21T18:06:02.944Z,25.40
2018-05-21T18:07:39.669Z,25.30
2018-05-21T18:09:15.991Z,25.30
2018-05-21T18:10:53.181Z,25.50
2018-05-21T18:12:29.897Z,25.50
2018-05-21T18:14:06.497Z,25.60
2018-05-21T18:15:43.895Z,25.70
2018-05-21T18:17:28.132Z,25.60
2018-05-21T18:19:05.624Z,25.60
2018-05-21T18:20:43.138Z,25.50
2018-05-21T18:22:19.914Z,25.50
2018-05-21T18:23:57.786Z,25.50
2018-05-21T18:25:35.909Z,25.30
2018-05-21T18:27:13.373Z,25.30
2018-05-21T18:28:50.403Z,25.10
2018-05-21T18:30:28.598Z,25.10
2018-05-21T18:32:06.228Z,25.10
2018-05-21T18:33:43.946Z,25.10
2018-05-21T18:35:21.200Z,25.10
2018-05-21T18:36:57.577Z,25.30
2018-05-21T18:38:34.556Z,25.30
2018-05-21T18:40:11.013Z,25.10
2018-05-21T18:41:48.271Z,25.10
2018-05-21T18:43:24.584Z,25.10
2018-05-21T18:45:01.347Z,25.30
2018-05-21T18:46:38.457Z,25.20
2018-05-21T18:48:14.757Z,25.10
2018-05-21T18:49:51.875Z,25.20
2018-05-21T18:51:28.789Z,25.20
2018-05-21T18:53:05.196Z,25.20
2018-05-21T18:54:42.222Z,25.20
2018-05-21T18:56:19.426Z,25.20
2018-05-21T18:57:58.195Z,25.50
2018-05-21T18:59:35.517Z,25.50
2018-05-21T19:01:13.486Z,25.40
2018-05-21T19:02:50.737Z,25.60
2018-05-21T19:04:27.387Z,25.60
2018-05-21T19:06:09.389Z,25.60
2018-05-21T19:07:46.079Z,25.70
2018-05-21T19:09:22.616Z,25.50
2018-05-21T19:11:00.214Z,25.60
2018-05-21T19:12:36.749Z,25.60
2018-05-21T19:14:13.161Z,25.70
2018-05-21T19:15:49.866Z,25.60
2018-05-21T19:17:27.601Z,25.60
2018-05-21T19:19:03.937Z,25.60
2018-05-21T19:20:40.497Z,25.40
2018-05-21T19:22:17.113Z,25.30
2018-05-21T19:23:53.882Z,25.30
2018-05-21T19:25:30.185Z,25.20
2018-05-21T19:27:07.293Z,25.20
2018-05-21T19:28:45.271Z,25.20
2018-05-21T19:30:23.646Z,25.30
2018-05-21T19:32:00.200Z,25.30
2018-05-21T19:33:36.937Z,25.40
2018-05-21T19:35:13.294Z,25.30
2018-05-21T19:36:50.074Z,25.30
2018-05-21T19:38:26.760Z,25.10
2018-05-21T19:40:03.191Z,25.00
2018-05-21T19:41:39.717Z,24.80
2018-05-21T19:43:16.541Z,24.60
2018-05-21T19:44:52.927Z,24.60
2018-05-21T19:46:29.698Z,24.70
2018-05-21T19:48:06.149Z,24.70
2018-05-21T19:49:42.541Z,24.70
2018-05-21T19:51:19.031Z,24.70
2018-05-21T19:52:55.541Z,24.80
2018-05-21T19:54:32.044Z,25.00
2018-05-21T19:56:08.888Z,24.90
2018-05-21T19:57:45.335Z,24.70
2018-05-21T19:59:21.755Z,24.90
2018-05-21T20:00:58.404Z,25.00
2018-05-21T20:02:35.999Z,24.70
2018-05-21T20:04:12.405Z,24.60
2018-05-21T20:05:49.285Z,24.50
2018-05-21T20:07:25.740Z,24.60
2018-05-21T20:09:02.567Z,24.50
2018-05-21T20:10:39.255Z,24.30
2018-05-21T20:12:15.690Z,24.30
2018-05-21T20:13:53.105Z,24.20
2018-05-21T20:15:30.177Z,24.30
2018-05-21T20:17:06.714Z,24.40
2018-05-21T20:18:43.106Z,24.30
2018-05-21T20:20:24.551Z,24.40
2018-05-21T20:22:01.408Z,24.10
2018-05-21T20:23:38.864Z,23.30
2018-05-21T20:25:15.204Z,23.30
2018-05-21T20:26:51.550Z,22.70
2018-05-21T20:28:28.499Z,22.20
2018-05-21T20:30:05.015Z,21.90
2018-05-21T20:31:41.663Z,21.80
2018-05-21T20:33:18.036Z,21.90
2018-05-21T20:34:55.312Z,21.70
2018-05-21T20:36:31.859Z,21.70
2018-05-21T20:38:08.272Z,21.50
2018-05-21T20:39:45.043Z,21.50
2018-05-21T20:41:22.663Z,21.90
2018-05-21T20:43:00.032Z,22.20
2018-05-21T20:44:36.554Z,22.10
2018-05-21T20:46:13.142Z,22.00
2018-05-21T20:47:50.297Z,22.10
2018-05-21T20:49:26.683Z,22.10
2018-05-21T20:51:03.380Z,22.10
2018-05-21T20:52:40.638Z,22.50
2018-05-21T20:54:18.282Z,22.60
2018-05-21T20:55:54.691Z,22.60
2018-05-21T20:57:31.241Z,22.60